San Juan Capistrano, CA (92675)

8:33 PM PST on December 17, 2014 (GMT -0800)
San Juan Creek | Change Station
CLOSE
Current Station
Personal Weather Station
Location: San Juan Capistrano, CA
Elevation: 300 ft
Nearby Weather Stations

Elev 300 ft 33.52 °N, 117.58 °W | Updated 14 minutes ago

Partly Cloudy
Partly Cloudy
52.4 °F
Feels Like 52.4 °F
N
0.0
Wind Variable Wind from SSE

Today
High -- | Low -- °F
--% Chance of Precip.
Yesterday
High -- | Low -- °F
Precip. -- in
6:48 AM 4:44 PM
Waning Crescent, 17% visible
Pressure 30.35 in
Visibility 8.0 miles
Clouds Few 3700 ft
Scattered Clouds 11000 ft
Dew Point 48 °F
Humidity 86%
Rainfall 0.25 in
Snow Depth Not available.
UV 0 out of 12
Pollen .90 out of 12
Air Quality Not available.
Flu Activity Not available.
METAR KNXF 180356Z AUTO 00000KT 8SM FEW037 SCT110 15/08 A3010 RMK AO2 RAB15E24 SLP277 P0000 T01500078 $

More Conditions Fewer Conditions

Pressure 30.35 in
Visibility 8.0 miles
Clouds Few 3700 ft
Scattered Clouds 11000 ft
Dew Point 48 °F
Humidity 86%
Rainfall 0.25 in
Snow Depth Not available.
UV 0 out of 12
Pollen .90 out of 12
Air Quality Not available.
Flu Activity Not available.
METAR KNXF 180356Z AUTO 00000KT 8SM FEW037 SCT110 15/08 A3010 RMK AO2 RAB15E24 SLP277 P0000 T01500078 $

More Conditions Fewer Conditions

10-Day Weather Forecast

Almanac

Astronomy

Dec. 17, 2014 Rise Set
Actual Time
Civil Twilight
Nautical Twilight
Astronomical Twilight
Moon
Length of Visible Light
Length of Day
Tomorrow will be .
, % of the Moon is Illuminated

Today's Extremes

State Highs State Lows

Community

WunderPhotos

Upload Photos

1,778,881 photos uploaded!

WunderBlogs® & News

Nearby

Air Quality

  Air Quality AQ Index Pollutant
Not available.

Snow Depth

Station Depth Elevation

Earthquake Activity

City Distance Mag. Time & Date
Minimum magnitude displayed is 2.5.

Coastal Water Temperatures

Place Temperature

Nearby Weather Stations